sensor_id;sensor_type;location;lat;lon;timestamp;temperature;humidity
16838;DHT22;19510;54.486;9.046;2022-07-22T04:55:23;16.50;99.90
16838;DHT22;19510;54.486;9.046;2022-07-22T04:57:49;16.40;99.90
16838;DHT22;19510;54.486;9.046;2022-07-22T05:00:15;16.40;99.90
16838;DHT22;19510;54.486;9.046;2022-07-22T05:02:45;16.50;99.90
16838;DHT22;19510;54.486;9.046;2022-07-22T05:05:13;16.50;99.90
16838;DHT22;19510;54.486;9.046;2022-07-22T05:07:39;16.50;99.90
16838;DHT22;19510;54.486;9.046;2022-07-22T05:10:05;16.50;99.90
16838;DHT22;19510;54.486;9.046;2022-07-22T05:12:31;16.50;99.90
16838;DHT22;19510;54.486;9.046;2022-07-22T05:17:32;16.50;99.90
16838;DHT22;19510;54.486;9.046;2022-07-22T05:20:00;16.50;99.90
16838;DHT22;19510;54.486;9.046;2022-07-22T05:22:29;16.40;99.90
16838;DHT22;19510;54.486;9.046;2022-07-22T05:24:54;16.50;99.90
16838;DHT22;19510;54.486;9.046;2022-07-22T05:27:25;16.50;99.90
16838;DHT22;19510;54.486;9.046;2022-07-22T05:29:50;16.50;99.90
16838;DHT22;19510;54.486;9.046;2022-07-22T05:32:18;16.50;99.90
16838;DHT22;19510;54.486;9.046;2022-07-22T05:34:48;16.50;99.90
16838;DHT22;19510;54.486;9.046;2022-07-22T05:37:17;16.50;99.90
16838;DHT22;19510;54.486;9.046;2022-07-22T05:39:49;16.50;99.90
16838;DHT22;19510;54.486;9.046;2022-07-22T05:42:14;16.60;99.90
16838;DHT22;19510;54.486;9.046;2022-07-22T05:44:40;16.60;99.90
16838;DHT22;19510;54.486;9.046;2022-07-22T05:47:08;16.60;99.90
16838;DHT22;19510;54.486;9.046;2022-07-22T05:49:37;16.70;99.90
16838;DHT22;19510;54.486;9.046;2022-07-22T05:52:03;16.70;99.90
16838;DHT22;19510;54.486;9.046;2022-07-22T05:54:31;16.70;99.90
16838;DHT22;19510;54.486;9.046;2022-07-22T05:56:57;16.70;99.90
16838;DHT22;19510;54.486;9.046;2022-07-22T05:59:23;16.80;99.90
16838;DHT22;19510;54.486;9.046;2022-07-22T06:01:48;16.80;99.90
16838;DHT22;19510;54.486;9.046;2022-07-22T06:04:14;16.80;99.90
16838;DHT22;19510;54.486;9.046;2022-07-22T06:06:43;16.80;99.90
16838;DHT22;19510;54.486;9.046;2022-07-22T06:09:08;16.80;99.90
16838;DHT22;19510;54.486;9.046;2022-07-22T06:11:34;16.80;99.90
16838;DHT22;19510;54.486;9.046;2022-07-22T06:14:00;16.80;99.90
16838;DHT22;19510;54.486;9.046;2022-07-22T06:16:25;16.90;99.90
16838;DHT22;19510;54.486;9.046;2022-07-22T06:18:54;16.80;99.90
16838;DHT22;19510;54.486;9.046;2022-07-22T06:21:27;16.80;99.90
16838;DHT22;19510;54.486;9.046;2022-07-22T06:23:55;16.80;99.90
16838;DHT22;19510;54.486;9.046;2022-07-22T06:26:26;16.80;99.90
16838;DHT22;19510;54.486;9.046;2022-07-22T06:28:52;16.90;99.90
16838;DHT22;19510;54.486;9.046;2022-07-22T06:31:20;16.90;99.90
16838;DHT22;19510;54.486;9.046;2022-07-22T06:33:46;17.00;99.90
16838;DHT22;19510;54.486;9.046;2022-07-22T06:36:19;17.00;99.90
16838;DHT22;19510;54.486;9.046;2022-07-22T06:38:45;16.90;99.90
16838;DHT22;19510;54.486;9.046;2022-07-22T06:41:13;16.90;99.90
16838;DHT22;19510;54.486;9.046;2022-07-22T06:43:46;16.80;99.90
16838;DHT22;19510;54.486;9.046;2022-07-22T06:46:12;16.90;99.90
16838;DHT22;19510;54.486;9.046;2022-07-22T06:48:42;16.90;99.90
16838;DHT22;19510;54.486;9.046;2022-07-22T06:51:10;16.90;99.90
16838;DHT22;19510;54.486;9.046;2022-07-22T06:53:36;16.90;99.90
16838;DHT22;19510;54.486;9.046;2022-07-22T06:56:11;16.90;99.90
16838;DHT22;19510;54.486;9.046;2022-07-22T06:58:38;16.90;99.90
16838;DHT22;19510;54.486;9.046;2022-07-22T07:01:06;16.90;99.90
16838;DHT22;19510;54.486;9.046;2022-07-22T07:03:32;16.90;99.90
16838;DHT22;19510;54.486;9.046;2022-07-22T07:05:58;16.90;99.90
16838;DHT22;19510;54.486;9.046;2022-07-22T07:08:31;16.90;99.90
16838;DHT22;19510;54.486;9.046;2022-07-22T07:10:59;16.90;99.90
16838;DHT22;19510;54.486;9.046;2022-07-22T07:13:24;16.80;99.90
16838;DHT22;19510;54.486;9.046;2022-07-22T07:15:50;16.80;99.90
16838;DHT22;19510;54.486;9.046;2022-07-22T07:18:16;16.80;99.90
16838;DHT22;19510;54.486;9.046;2022-07-22T07:20:41;16.80;99.90
16838;DHT22;19510;54.486;9.046;2022-07-22T07:23:07;16.80;99.90
16838;DHT22;19510;54.486;9.046;2022-07-22T07:25:33;16.80;99.90
16838;DHT22;19510;54.486;9.046;2022-07-22T07:27:59;16.80;99.90
16838;DHT22;19510;54.486;9.046;2022-07-22T07:30:27;16.70;99.90
16838;DHT22;19510;54.486;9.046;2022-07-22T07:32:53;16.70;99.90
16838;DHT22;19510;54.486;9.046;2022-07-22T07:35:21;16.80;99.90
16838;DHT22;19510;54.486;9.046;2022-07-22T07:37:46;16.80;99.90
16838;DHT22;19510;54.486;9.046;2022-07-22T07:40:12;16.80;99.90
16838;DHT22;19510;54.486;9.046;2022-07-22T07:42:49;16.80;99.90
16838;DHT22;19510;54.486;9.046;2022-07-22T07:45:15;16.90;99.90
16838;DHT22;19510;54.486;9.046;2022-07-22T07:47:41;16.90;99.90
16838;DHT22;19510;54.486;9.046;2022-07-22T07:50:07;16.90;99.90
16838;DHT22;19510;54.486;9.046;2022-07-22T07:52:44;16.90;99.90
16838;DHT22;19510;54.486;9.046;2022-07-22T07:55:13;17.00;99.90
16838;DHT22;19510;54.486;9.046;2022-07-22T07:57:39;17.00;99.90
16838;DHT22;19510;54.486;9.046;2022-07-22T08:00:14;17.00;99.90
16838;DHT22;19510;54.486;9.046;2022-07-22T08:02:46;17.10;99.90
16838;DHT22;19510;54.486;9.046;2022-07-22T08:05:12;17.20;99.90
16838;DHT22;19510;54.486;9.046;2022-07-22T08:07:38;17.10;99.90
16838;DHT22;19510;54.486;9.046;2022-07-22T08:10:07;17.10;99.90
16838;DHT22;19510;54.486;9.046;2022-07-22T08:12:35;17.10;99.90
16838;DHT22;19510;54.486;9.046;2022-07-22T08:15:04;17.10;99.90
16838;DHT22;19510;54.486;9.046;2022-07-22T08:17:29;17.10;99.90
16838;DHT22;19510;54.486;9.046;2022-07-22T08:19:58;17.10;99.90
16838;DHT22;19510;54.486;9.046;2022-07-22T08:22:25;17.20;99.90
16838;DHT22;19510;54.486;9.046;2022-07-22T08:24:51;17.20;99.90
16838;DHT22;19510;54.486;9.046;2022-07-22T08:27:19;17.30;99.90
16838;DHT22;19510;54.486;9.046;2022-07-22T08:29:45;17.30;99.90
16838;DHT22;19510;54.486;9.046;2022-07-22T08:32:11;17.30;99.90
16838;DHT22;19510;54.486;9.046;2022-07-22T08:34:39;17.30;99.90
16838;DHT22;19510;54.486;9.046;2022-07-22T08:37:05;17.20;99.90
16838;DHT22;19510;54.486;9.046;2022-07-22T08:39:33;17.20;99.90
16838;DHT22;19510;54.486;9.046;2022-07-22T08:42:02;17.20;99.90
16838;DHT22;19510;54.486;9.046;2022-07-22T08:44:33;17.10;99.90
16838;DHT22;19510;54.486;9.046;2022-07-22T08:47:02;17.10;99.90
16838;DHT22;19510;54.486;9.046;2022-07-22T08:49:38;17.00;99.90
16838;DHT22;19510;54.486;9.046;2022-07-22T08:52:04;17.00;99.90
16838;DHT22;19510;54.486;9.046;2022-07-22T08:54:33;17.10;99.90
16838;DHT22;19510;54.486;9.046;2022-07-22T08:56:58;17.10;99.90
16838;DHT22;19510;54.486;9.046;2022-07-22T08:59:31;17.10;99.90
16838;DHT22;19510;54.486;9.046;2022-07-22T09:02:09;17.10;99.90
16838;DHT22;19510;54.486;9.046;2022-07-22T09:04:54;17.10;99.90
16838;DHT22;19510;54.486;9.046;2022-07-22T09:07:24;17.20;99.90
16838;DHT22;19510;54.486;9.046;2022-07-22T09:09:50;17.20;99.90
16838;DHT22;19510;54.486;9.046;2022-07-22T09:12:18;17.20;99.90
16838;DHT22;19510;54.486;9.046;2022-07-22T09:14:52;17.10;99.90
16838;DHT22;19510;54.486;9.046;2022-07-22T09:17:34;17.20;99.90
16838;DHT22;19510;54.486;9.046;2022-07-22T09:20:15;17.20;99.90
16838;DHT22;19510;54.486;9.046;2022-07-22T09:22:47;17.20;99.90
16838;DHT22;19510;54.486;9.046;2022-07-22T09:25:32;17.30;99.90
16838;DHT22;19510;54.486;9.046;2022-07-22T09:30:49;17.40;99.90
16838;DHT22;19510;54.486;9.046;2022-07-22T09:33:21;17.50;99.90
16838;DHT22;19510;54.486;9.046;2022-07-22T09:35:48;17.60;99.90
16838;DHT22;19510;54.486;9.046;2022-07-22T09:38:15;17.60;99.90
16838;DHT22;19510;54.486;9.046;2022-07-22T09:40:45;17.60;99.90
16838;DHT22;19510;54.486;9.046;2022-07-22T09:43:14;17.60;99.90
16838;DHT22;19510;54.486;9.046;2022-07-22T09:45:56;17.60;99.90
16838;DHT22;19510;54.486;9.046;2022-07-22T09:48:23;17.60;99.90
16838;DHT22;19510;54.486;9.046;2022-07-22T09:50:50;17.60;99.90
16838;DHT22;19510;54.486;9.046;2022-07-22T09:53:19;17.70;99.90
16838;DHT22;19510;54.486;9.046;2022-07-22T09:55:47;17.80;99.90
16838;DHT22;19510;54.486;9.046;2022-07-22T09:58:16;17.90;99.90
16838;DHT22;19510;54.486;9.046;2022-07-22T10:00:57;18.10;99.90
16838;DHT22;19510;54.486;9.046;2022-07-22T10:03:32;18.10;99.90
16838;DHT22;19510;54.486;9.046;2022-07-22T10:05:59;18.20;99.90
16838;DHT22;19510;54.486;9.046;2022-07-22T10:08:29;18.20;99.90
16838;DHT22;19510;54.486;9.046;2022-07-22T10:11:00;18.30;99.90
16838;DHT22;19510;54.486;9.046;2022-07-22T10:13:29;18.30;99.90
16838;DHT22;19510;54.486;9.046;2022-07-22T10:16:05;18.20;99.90
16838;DHT22;19510;54.486;9.046;2022-07-22T10:18:31;18.20;99.90
16838;DHT22;19510;54.486;9.046;2022-07-22T10:21:09;18.20;99.90
16838;DHT22;19510;54.486;9.046;2022-07-22T10:27:05;18.10;99.90
16838;DHT22;19510;54.486;9.046;2022-07-22T10:29:42;18.10;99.90
16838;DHT22;19510;54.486;9.046;2022-07-22T10:32:27;18.10;99.90
16838;DHT22;19510;54.486;9.046;2022-07-22T10:45:49;18.20;99.90
16838;DHT22;19510;54.486;9.046;2022-07-22T10:48:23;18.20;99.90
16838;DHT22;19510;54.486;9.046;2022-07-22T10:50:53;18.20;99.90
16838;DHT22;19510;54.486;9.046;2022-07-22T10:59:08;18.20;99.90
16838;DHT22;19510;54.486;9.046;2022-07-22T11:01:50;18.20;99.90
16838;DHT22;19510;54.486;9.046;2022-07-22T11:04:24;18.20;99.90
16838;DHT22;19510;54.486;9.046;2022-07-22T11:06:56;18.20;99.90
16838;DHT22;19510;54.486;9.046;2022-07-22T11:09:30;18.30;99.90
16838;DHT22;19510;54.486;9.046;2022-07-22T11:11:58;18.30;99.90
16838;DHT22;19510;54.486;9.046;2022-07-22T11:14:30;18.40;99.90
16838;DHT22;19510;54.486;9.046;2022-07-22T11:19:32;18.60;99.90
16838;DHT22;19510;54.486;9.046;2022-07-22T11:22:03;18.70;99.90
16838;DHT22;19510;54.486;9.046;2022-07-22T11:24:30;18.70;99.90
16838;DHT22;19510;54.486;9.046;2022-07-22T11:26:59;18.80;99.90
16838;DHT22;19510;54.486;9.046;2022-07-22T11:31:56;18.80;99.90
16838;DHT22;19510;54.486;9.046;2022-07-22T11:34:25;18.70;99.90
16838;DHT22;19510;54.486;9.046;2022-07-22T11:36:52;18.70;99.90
16838;DHT22;19510;54.486;9.046;2022-07-22T11:39:22;18.70;99.90
16838;DHT22;19510;54.486;9.046;2022-07-22T11:41:49;18.70;99.90
16838;DHT22;19510;54.486;9.046;2022-07-22T11:44:23;18.70;99.90
16838;DHT22;19510;54.486;9.046;2022-07-22T11:46:49;18.80;99.90
16838;DHT22;19510;54.486;9.046;2022-07-22T11:49:20;18.80;99.90
16838;DHT22;19510;54.486;9.046;2022-07-22T11:51:54;18.70;99.90
16838;DHT22;19510;54.486;9.046;2022-07-22T11:54:20;18.60;99.90
16838;DHT22;19510;54.486;9.046;2022-07-22T11:56:48;18.60;99.90
16838;DHT22;19510;54.486;9.046;2022-07-22T11:59:15;18.50;99.90
16838;DHT22;19510;54.486;9.046;2022-07-22T12:01:47;18.50;99.90
16838;DHT22;19510;54.486;9.046;2022-07-22T12:04:25;18.50;99.90
16838;DHT22;19510;54.486;9.046;2022-07-22T12:06:53;18.50;99.90
16838;DHT22;19510;54.486;9.046;2022-07-22T12:09:28;18.50;99.90
16838;DHT22;19510;54.486;9.046;2022-07-22T12:11:58;18.50;99.90
16838;DHT22;19510;54.486;9.046;2022-07-22T12:14:26;18.50;99.90
16838;DHT22;19510;54.486;9.046;2022-07-22T12:19:26;18.30;99.90
16838;DHT22;19510;54.486;9.046;2022-07-22T12:21:57;18.30;99.90
16838;DHT22;19510;54.486;9.046;2022-07-22T12:24:42;18.30;99.90
16838;DHT22;19510;54.486;9.046;2022-07-22T12:27:18;18.20;99.90
16838;DHT22;19510;54.486;9.046;2022-07-22T12:29:45;18.20;99.90
16838;DHT22;19510;54.486;9.046;2022-07-22T12:32:31;18.20;99.90
16838;DHT22;19510;54.486;9.046;2022-07-22T12:35:01;18.30;99.90
16838;DHT22;19510;54.486;9.046;2022-07-22T12:40:03;18.50;99.90
16838;DHT22;19510;54.486;9.046;2022-07-22T12:42:36;18.50;99.90
16838;DHT22;19510;54.486;9.046;2022-07-22T12:45:11;18.30;99.90
16838;DHT22;19510;54.486;9.046;2022-07-22T12:50:19;18.30;99.90
16838;DHT22;19510;54.486;9.046;2022-07-22T12:52:47;18.30;99.90
16838;DHT22;19510;54.486;9.046;2022-07-22T12:55:13;18.20;99.90
16838;DHT22;19510;54.486;9.046;2022-07-22T12:57:41;18.30;99.90
16838;DHT22;19510;54.486;9.046;2022-07-22T13:00:11;18.30;99.90
16838;DHT22;19510;54.486;9.046;2022-07-22T13:02:43;18.30;99.90
16838;DHT22;19510;54.486;9.046;2022-07-22T13:05:11;18.30;99.90
16838;DHT22;19510;54.486;9.046;2022-07-22T13:07:42;18.40;99.90
16838;DHT22;19510;54.486;9.046;2022-07-22T13:10:08;18.40;99.90
16838;DHT22;19510;54.486;9.046;2022-07-22T13:12:37;18.40;99.90
16838;DHT22;19510;54.486;9.046;2022-07-22T13:15:05;18.40;99.90
16838;DHT22;19510;54.486;9.046;2022-07-22T13:17:34;18.50;99.90
16838;DHT22;19510;54.486;9.046;2022-07-22T13:20:03;18.50;99.90
16838;DHT22;19510;54.486;9.046;2022-07-22T13:22:30;18.50;99.90
16838;DHT22;19510;54.486;9.046;2022-07-22T13:24:55;18.40;99.90
16838;DHT22;19510;54.486;9.046;2022-07-22T13:27:23;18.20;99.90
16838;DHT22;19510;54.486;9.046;2022-07-22T13:29:49;18.20;99.90
16838;DHT22;19510;54.486;9.046;2022-07-22T13:32:15;18.10;99.90
16838;DHT22;19510;54.486;9.046;2022-07-22T13:34:48;18.20;99.90
16838;DHT22;19510;54.486;9.046;2022-07-22T13:37:14;18.30;99.90
16838;DHT22;19510;54.486;9.046;2022-07-22T13:39:43;18.40;99.90
16838;DHT22;19510;54.486;9.046;2022-07-22T13:42:13;18.50;99.90
16838;DHT22;19510;54.486;9.046;2022-07-22T13:44:40;18.50;99.90
16838;DHT22;19510;54.486;9.046;2022-07-22T13:47:07;18.50;99.90
16838;DHT22;19510;54.486;9.046;2022-07-22T13:49:35;18.50;99.90
16838;DHT22;19510;54.486;9.046;2022-07-22T13:52:03;18.50;99.90
16838;DHT22;19510;54.486;9.046;2022-07-22T13:54:33;18.60;99.90
16838;DHT22;19510;54.486;9.046;2022-07-22T13:57:02;18.70;99.90
16838;DHT22;19510;54.486;9.046;2022-07-22T13:59:34;18.80;99.90
16838;DHT22;19510;54.486;9.046;2022-07-22T14:02:02;18.70;99.90
16838;DHT22;19510;54.486;9.046;2022-07-22T14:04:30;18.70;99.90
16838;DHT22;19510;54.486;9.046;2022-07-22T14:07:01;18.70;99.90
16838;DHT22;19510;54.486;9.046;2022-07-22T14:09:27;18.80;99.90
16838;DHT22;19510;54.486;9.046;2022-07-22T14:11:55;18.80;99.90
16838;DHT22;19510;54.486;9.046;2022-07-22T14:14:24;18.90;99.90
16838;DHT22;19510;54.486;9.046;2022-07-22T14:16:52;18.90;99.90
16838;DHT22;19510;54.486;9.046;2022-07-22T14:19:20;19.00;99.90
16838;DHT22;19510;54.486;9.046;2022-07-22T14:21:48;19.10;99.90
16838;DHT22;19510;54.486;9.046;2022-07-22T14:24:14;19.00;99.90
16838;DHT22;19510;54.486;9.046;2022-07-22T14:26:42;19.00;99.90
16838;DHT22;19510;54.486;9.046;2022-07-22T14:29:10;19.00;99.90
16838;DHT22;19510;54.486;9.046;2022-07-22T14:31:39;19.00;99.90
16838;DHT22;19510;54.486;9.046;2022-07-22T14:34:07;18.90;99.90
16838;DHT22;19510;54.486;9.046;2022-07-22T14:36:33;18.80;99.90
16838;DHT22;19510;54.486;9.046;2022-07-22T14:38:59;18.70;99.90
16838;DHT22;19510;54.486;9.046;2022-07-22T14:41:35;18.50;99.90
16838;DHT22;19510;54.486;9.046;2022-07-22T14:44:00;18.40;99.90
16838;DHT22;19510;54.486;9.046;2022-07-22T14:46:26;18.40;99.90
16838;DHT22;19510;54.486;9.046;2022-07-22T14:48:52;18.30;99.90
16838;DHT22;19510;54.486;9.046;2022-07-22T14:51:20;18.30;99.90
16838;DHT22;19510;54.486;9.046;2022-07-22T14:53:49;18.30;99.90
16838;DHT22;19510;54.486;9.046;2022-07-22T14:56:15;18.30;99.90
16838;DHT22;19510;54.486;9.046;2022-07-22T14:58:41;18.30;99.90
16838;DHT22;19510;54.486;9.046;2022-07-22T15:01:07;18.30;99.90
16838;DHT22;19510;54.486;9.046;2022-07-22T15:03:36;18.30;99.90
16838;DHT22;19510;54.486;9.046;2022-07-22T15:06:04;18.20;99.90
16838;DHT22;19510;54.486;9.046;2022-07-22T15:08:30;18.10;99.90
16838;DHT22;19510;54.486;9.046;2022-07-22T15:10:56;18.00;99.90
16838;DHT22;19510;54.486;9.046;2022-07-22T15:13:21;18.00;99.90
16838;DHT22;19510;54.486;9.046;2022-07-22T15:15:49;18.00;99.90
16838;DHT22;19510;54.486;9.046;2022-07-22T15:18:17;18.00;99.90
16838;DHT22;19510;54.486;9.046;2022-07-22T15:20:51;18.00;99.90
16838;DHT22;19510;54.486;9.046;2022-07-22T15:23:20;18.00;99.90
16838;DHT22;19510;54.486;9.046;2022-07-22T15:25:47;17.90;99.90
16838;DHT22;19510;54.486;9.046;2022-07-22T15:28:13;17.80;99.90
16838;DHT22;19510;54.486;9.046;2022-07-22T15:30:40;17.80;99.90
16838;DHT22;19510;54.486;9.046;2022-07-22T15:33:09;17.80;99.90
16838;DHT22;19510;54.486;9.046;2022-07-22T15:35:37;17.80;99.90
16838;DHT22;19510;54.486;9.046;2022-07-22T15:38:03;17.80;99.90
16838;DHT22;19510;54.486;9.046;2022-07-22T15:40:31;17.80;99.90
16838;DHT22;19510;54.486;9.046;2022-07-22T15:43:04;17.80;99.90
16838;DHT22;19510;54.486;9.046;2022-07-22T15:45:32;17.80;99.90
16838;DHT22;19510;54.486;9.046;2022-07-22T15:48:01;17.80;99.90
16838;DHT22;19510;54.486;9.046;2022-07-22T15:50:27;17.90;99.90
16838;DHT22;19510;54.486;9.046;2022-07-22T15:52:56;17.90;99.90
16838;DHT22;19510;54.486;9.046;2022-07-22T15:55:23;18.00;99.90
16838;DHT22;19510;54.486;9.046;2022-07-22T15:57:51;18.10;99.90
16838;DHT22;19510;54.486;9.046;2022-07-22T16:00:38;18.10;99.90
16838;DHT22;19510;54.486;9.046;2022-07-22T16:03:04;18.10;99.90
16838;DHT22;19510;54.486;9.046;2022-07-22T16:05:30;18.20;99.90
16838;DHT22;19510;54.486;9.046;2022-07-22T16:07:57;18.10;99.90
16838;DHT22;19510;54.486;9.046;2022-07-22T16:10:25;18.10;99.90
16838;DHT22;19510;54.486;9.046;2022-07-22T16:13:02;18.10;99.90
16838;DHT22;19510;54.486;9.046;2022-07-22T16:15:27;18.10;99.90
16838;DHT22;19510;54.486;9.046;2022-07-22T16:17:58;18.10;99.90
16838;DHT22;19510;54.486;9.046;2022-07-22T16:20:24;18.00;99.90
16838;DHT22;19510;54.486;9.046;2022-07-22T16:22:54;18.10;99.90
16838;DHT22;19510;54.486;9.046;2022-07-22T16:25:20;18.10;99.90
16838;DHT22;19510;54.486;9.046;2022-07-22T16:27:46;18.10;99.90
16838;DHT22;19510;54.486;9.046;2022-07-22T16:30:12;18.00;99.90
16838;DHT22;19510;54.486;9.046;2022-07-22T16:32:43;18.00;99.90
16838;DHT22;19510;54.486;9.046;2022-07-22T16:35:11;17.90;99.90
16838;DHT22;19510;54.486;9.046;2022-07-22T16:37:36;17.90;99.90
16838;DHT22;19510;54.486;9.046;2022-07-22T16:40:05;17.80;99.90
16838;DHT22;19510;54.486;9.046;2022-07-22T16:42:31;17.70;99.90
16838;DHT22;19510;54.486;9.046;2022-07-22T16:44:56;17.70;99.90
16838;DHT22;19510;54.486;9.046;2022-07-22T16:47:22;17.80;99.90
16838;DHT22;19510;54.486;9.046;2022-07-22T16:49:48;17.70;99.90
16838;DHT22;19510;54.486;9.046;2022-07-22T16:52:14;17.80;99.90
16838;DHT22;19510;54.486;9.046;2022-07-22T16:54:40;17.80;99.90
16838;DHT22;19510;54.486;9.046;2022-07-22T16:57:10;17.90;99.90
16838;DHT22;19510;54.486;9.046;2022-07-22T16:59:38;17.80;99.90
16838;DHT22;19510;54.486;9.046;2022-07-22T17:02:07;17.80;99.90
16838;DHT22;19510;54.486;9.046;2022-07-22T17:04:34;17.70;99.90
16838;DHT22;19510;54.486;9.046;2022-07-22T17:07:05;17.60;99.90
16838;DHT22;19510;54.486;9.046;2022-07-22T17:09:30;17.60;99.90
16838;DHT22;19510;54.486;9.046;2022-07-22T17:12:02;17.60;99.90
16838;DHT22;19510;54.486;9.046;2022-07-22T17:14:28;17.70;99.90
16838;DHT22;19510;54.486;9.046;2022-07-22T17:17:01;17.60;99.90
16838;DHT22;19510;54.486;9.046;2022-07-22T17:19:31;17.60;99.90
16838;DHT22;19510;54.486;9.046;2022-07-22T17:21:57;17.50;99.90
16838;DHT22;19510;54.486;9.046;2022-07-22T17:24:23;17.50;99.90
16838;DHT22;19510;54.486;9.046;2022-07-22T17:26:49;17.40;99.90
16838;DHT22;19510;54.486;9.046;2022-07-22T17:29:14;17.40;99.90
16838;DHT22;19510;54.486;9.046;2022-07-22T17:31:40;17.40;99.90
16838;DHT22;19510;54.486;9.046;2022-07-22T17:34:08;17.30;99.90
16838;DHT22;19510;54.486;9.046;2022-07-22T17:36:36;17.30;99.90
16838;DHT22;19510;54.486;9.046;2022-07-22T17:39:14;17.30;99.90
16838;DHT22;19510;54.486;9.046;2022-07-22T17:41:42;17.30;99.90
16838;DHT22;19510;54.486;9.046;2022-07-22T17:44:08;17.20;99.90
16838;DHT22;19510;54.486;9.046;2022-07-22T17:46:37;17.20;99.90
16838;DHT22;19510;54.486;9.046;2022-07-22T17:49:04;17.20;99.90
16838;DHT22;19510;54.486;9.046;2022-07-22T17:51:32;17.30;99.90
16838;DHT22;19510;54.486;9.046;2022-07-22T17:53:57;17.30;99.90
16838;DHT22;19510;54.486;9.046;2022-07-22T17:56:23;17.20;99.90
16838;DHT22;19510;54.486;9.046;2022-07-22T17:58:49;17.30;99.90
16838;DHT22;19510;54.486;9.046;2022-07-22T18:01:14;17.30;99.90
16838;DHT22;19510;54.486;9.046;2022-07-22T18:03:45;17.20;99.90
16838;DHT22;19510;54.486;9.046;2022-07-22T18:06:13;17.20;99.90
16838;DHT22;19510;54.486;9.046;2022-07-22T18:08:39;17.20;99.90
16838;DHT22;19510;54.486;9.046;2022-07-22T18:11:04;17.20;99.90
16838;DHT22;19510;54.486;9.046;2022-07-22T18:13:34;17.20;99.90
16838;DHT22;19510;54.486;9.046;2022-07-22T18:16:04;17.20;99.90
16838;DHT22;19510;54.486;9.046;2022-07-22T18:18:30;17.20;99.90
16838;DHT22;19510;54.486;9.046;2022-07-22T18:20:58;17.20;99.90
16838;DHT22;19510;54.486;9.046;2022-07-22T18:23:24;17.20;99.90
16838;DHT22;19510;54.486;9.046;2022-07-22T18:25:59;17.20;99.90
16838;DHT22;19510;54.486;9.046;2022-07-22T18:28:25;17.00;99.90
16838;DHT22;19510;54.486;9.046;2022-07-22T18:30:53;17.00;99.90
16838;DHT22;19510;54.486;9.046;2022-07-22T18:33:19;16.90;99.90
16838;DHT22;19510;54.486;9.046;2022-07-22T18:35:44;16.90;99.90
16838;DHT22;19510;54.486;9.046;2022-07-22T18:38:10;17.00;99.90
16838;DHT22;19510;54.486;9.046;2022-07-22T18:40:41;16.90;99.90
16838;DHT22;19510;54.486;9.046;2022-07-22T18:43:07;16.90;99.90
16838;DHT22;19510;54.486;9.046;2022-07-22T18:45:37;16.90;99.90
16838;DHT22;19510;54.486;9.046;2022-07-22T18:48:03;16.90;99.90
16838;DHT22;19510;54.486;9.046;2022-07-22T18:50:34;16.90;99.90
16838;DHT22;19510;54.486;9.046;2022-07-22T18:53:02;16.90;99.90
16838;DHT22;19510;54.486;9.046;2022-07-22T18:55:28;16.70;99.90
16838;DHT22;19510;54.486;9.046;2022-07-22T18:57:54;16.80;99.90
16838;DHT22;19510;54.486;9.046;2022-07-22T19:00:20;16.80;99.90
16838;DHT22;19510;54.486;9.046;2022-07-22T19:02:46;16.80;99.90
16838;DHT22;19510;54.486;9.046;2022-07-22T19:05:15;16.80;99.90
16838;DHT22;19510;54.486;9.046;2022-07-22T19:07:40;16.70;99.90
16838;DHT22;19510;54.486;9.046;2022-07-22T19:10:11;16.70;99.90
16838;DHT22;19510;54.486;9.046;2022-07-22T19:12:39;16.70;99.90
16838;DHT22;19510;54.486;9.046;2022-07-22T19:15:06;16.80;99.90
16838;DHT22;19510;54.486;9.046;2022-07-22T19:17:32;16.80;99.90
16838;DHT22;19510;54.486;9.046;2022-07-22T19:20:00;16.70;99.90
16838;DHT22;19510;54.486;9.046;2022-07-22T19:22:30;16.80;99.90
16838;DHT22;19510;54.486;9.046;2022-07-22T19:25:00;16.70;99.90
16838;DHT22;19510;54.486;9.046;2022-07-22T19:27:28;16.80;99.90
16838;DHT22;19510;54.486;9.046;2022-07-22T19:29:56;16.80;99.90
16838;DHT22;19510;54.486;9.046;2022-07-22T19:32:24;16.80;99.90
16838;DHT22;19510;54.486;9.046;2022-07-22T19:34:53;16.70;99.90
16838;DHT22;19510;54.486;9.046;2022-07-22T19:37:18;16.60;99.90
16838;DHT22;19510;54.486;9.046;2022-07-22T19:39:44;16.60;99.90
16838;DHT22;19510;54.486;9.046;2022-07-22T19:42:16;16.70;99.90
16838;DHT22;19510;54.486;9.046;2022-07-22T19:44:47;16.60;99.90
16838;DHT22;19510;54.486;9.046;2022-07-22T19:47:16;16.70;99.90
16838;DHT22;19510;54.486;9.046;2022-07-22T19:49:44;16.70;99.90
16838;DHT22;19510;54.486;9.046;2022-07-22T19:52:10;16.80;99.90
16838;DHT22;19510;54.486;9.046;2022-07-22T19:54:38;16.80;99.90
16838;DHT22;19510;54.486;9.046;2022-07-22T19:57:03;16.80;99.90
16838;DHT22;19510;54.486;9.046;2022-07-22T19:59:29;16.80;99.90
16838;DHT22;19510;54.486;9.046;2022-07-22T20:01:57;16.70;99.90
16838;DHT22;19510;54.486;9.046;2022-07-22T20:04:25;16.70;99.90
16838;DHT22;19510;54.486;9.046;2022-07-22T20:06:54;16.70;99.90
16838;DHT22;19510;54.486;9.046;2022-07-22T20:09:26;16.70;99.90
16838;DHT22;19510;54.486;9.046;2022-07-22T20:11:54;16.70;99.90
16838;DHT22;19510;54.486;9.046;2022-07-22T20:14:20;16.70;99.90
16838;DHT22;19510;54.486;9.046;2022-07-22T20:16:48;16.60;99.90
16838;DHT22;19510;54.486;9.046;2022-07-22T20:19:14;16.70;99.90
16838;DHT22;19510;54.486;9.046;2022-07-22T20:21:42;16.70;99.90
16838;DHT22;19510;54.486;9.046;2022-07-22T20:24:08;16.70;99.90
16838;DHT22;19510;54.486;9.046;2022-07-22T20:26:36;16.70;99.90
16838;DHT22;19510;54.486;9.046;2022-07-22T20:29:04;16.70;99.90
16838;DHT22;19510;54.486;9.046;2022-07-22T20:31:30;16.70;99.90
16838;DHT22;19510;54.486;9.046;2022-07-22T20:33:58;16.70;99.90
16838;DHT22;19510;54.486;9.046;2022-07-22T20:36:25;16.70;99.90
16838;DHT22;19510;54.486;9.046;2022-07-22T20:38:51;16.60;99.90
16838;DHT22;19510;54.486;9.046;2022-07-22T20:41:16;16.60;99.90
16838;DHT22;19510;54.486;9.046;2022-07-22T20:43:42;16.60;99.90
16838;DHT22;19510;54.486;9.046;2022-07-22T20:46:08;16.60;99.90
16838;DHT22;19510;54.486;9.046;2022-07-22T20:48:36;16.50;99.90
16838;DHT22;19510;54.486;9.046;2022-07-22T20:51:07;16.50;99.90
16838;DHT22;19510;54.486;9.046;2022-07-22T20:53:32;16.50;99.90
16838;DHT22;19510;54.486;9.046;2022-07-22T20:56:03;16.50;99.90
16838;DHT22;19510;54.486;9.046;2022-07-22T20:58:31;16.50;99.90
16838;DHT22;19510;54.486;9.046;2022-07-22T21:00:58;16.60;99.90
16838;DHT22;19510;54.486;9.046;2022-07-22T21:03:30;16.60;99.90
16838;DHT22;19510;54.486;9.046;2022-07-22T21:06:03;16.60;99.90
16838;DHT22;19510;54.486;9.046;2022-07-22T21:08:31;16.60;99.90
16838;DHT22;19510;54.486;9.046;2022-07-22T21:10:57;16.50;99.90